Antelope, Oregon
Current Conditions -  °F | °C
As of 3:55 PM on Sunday 21 Dec 2014 (Local Time) from KS39 Reporting Station
Unknown Precip Unknown Precip  
Wind Chill: 45°   Ceiling: 3900
Heat Index: 45°   Visibility: 10mi
Dew Point: 43°   Wind: 3mph
Humidity: 93%   Direction: 260°W
Pressure: 30.11"   Gusts: NA
Location:  44.91°N, 120.72°W
Report Text: KS39 212355Z AUTO 26003KT 10SM -UP BKN039 OVC046 07/06 A3011 RMK AO2
Loading
Personal Weather Stations






























Interactive Weather Map New forecast layout! Learn more

10-Day Weather Forecast

Advertisements
Track Severe Weather on mobile